Time;durP1;ratioP1;P1;durP2;ratioP2;P2;SDS_P1;SDS_P2;PMS_P1;PMS_P2;Temp;Humidity;BMP_temperature;BMP_pressure;BME280_temperature;BME280_humidity;BME280_pressure;Samples;Min_cycle;Max_cycle;Signal;HPM_P1;HPM_P2
2022/05/23 00:01:06;;;;;;;9.75;7.45;;;;;;;17.83;60.01;100664.66;5110220;28;20095;-78
2022/05/23 00:03:32;;;;;;;11.25;7.75;;;;;;;17.83;60.78;100659.38;5111558;28;20050;-77
2022/05/23 00:05:58;;;;;;;13.30;7.82;;;;;;;17.82;60.71;100655.91;5110440;28;20088;-78
2022/05/23 00:08:25;;;;;;;12.20;7.25;;;;;;;17.78;61.14;100654.34;5111054;28;20486;-78
2022/05/23 00:10:51;;;;;;;14.38;7.35;;;;;;;17.76;61.33;100659.72;5098283;28;20363;-78
2022/05/23 00:13:16;;;;;;;12.95;7.78;;;;;;;17.74;61.41;100655.44;5091536;28;20062;-78
2022/05/23 00:15:42;;;;;;;12.20;7.78;;;;;;;17.76;61.07;100653.56;5101647;28;20475;-78
2022/05/23 00:18:08;;;;;;;11.20;7.60;;;;;;;17.73;61.60;100659.84;5108795;28;20537;-77
2022/05/23 00:20:33;;;;;;;11.45;7.63;;;;;;;17.69;61.38;100646.91;5104843;28;20086;-77
2022/05/23 00:22:59;;;;;;;12.07;8.07;;;;;;;17.66;61.61;100641.84;5105672;28;20035;-77
2022/05/23 00:25:26;;;;;;;15.13;8.05;;;;;;;17.57;61.60;100642.34;5107544;28;20030;-78
2022/05/23 00:27:52;;;;;;;13.88;8.13;;;;;;;17.52;62.18;100638.16;5111747;28;20030;-78
2022/05/23 00:30:24;;;;;;;10.90;7.15;;;;;;;17.49;61.72;100625.19;5109913;28;20032;-77
2022/05/23 00:35:34;;;;;;;14.27;7.50;;;;;;;17.47;62.27;100642.00;5100664;28;20284;-78
2022/05/23 00:37:59;;;;;;;9.40;6.70;;;;;;;17.43;63.54;100640.47;5098278;28;20020;-77
2022/05/23 00:40:31;;;;;;;9.45;6.80;;;;;;;17.50;63.37;100647.97;5115430;28;20524;-78
2022/05/23 00:43:14;;;;;;;18.08;7.50;;;;;;;17.52;62.68;100639.94;5114848;28;20073;-77
2022/05/23 00:46:00;;;;;;;;;;;;;;;17.58;60.97;100636.13;5114439;28;20035;-77
2022/05/23 00:48:27;;;;;;;10.30;7.18;;;;;;;17.48;62.95;100628.72;5113702;28;20278;-78
2022/05/23 00:50:59;;;;;;;14.60;7.57;;;;;;;17.46;63.12;100619.22;5114545;27;20028;-78
2022/05/23 00:53:31;;;;;;;13.32;7.57;;;;;;;17.33;63.25;100603.25;5113927;28;20051;-77
2022/05/23 00:55:57;;;;;;;10.52;7.55;;;;;;;17.26;63.99;100613.25;5113070;28;20501;-78
2022/05/23 00:58:32;;;;;;;13.52;8.15;;;;;;;17.18;63.60;100609.34;5113009;28;20036;-78
2022/05/23 01:01:01;;;;;;;11.27;7.30;;;;;;;17.17;64.42;100607.66;5113454;28;20115;-78
2022/05/23 01:03:26;;;;;;;10.35;7.25;;;;;;;17.17;64.17;100608.50;5114150;28;20034;-77
2022/05/23 01:05:54;;;;;;;12.40;6.90;;;;;;;17.23;64.62;100607.31;5109411;28;20028;-77
2022/05/23 01:08:21;;;;;;;12.55;7.38;;;;;;;17.20;63.35;100607.47;5094368;28;20038;-77
2022/05/23 01:10:46;;;;;;;13.77;8.25;;;;;;;17.23;64.56;100620.47;5093869;28;20021;-77
2022/05/23 01:13:12;;;;;;;11.30;7.47;;;;;;;17.23;63.90;100624.00;5094500;28;20032;-77
2022/05/23 01:15:38;;;;;;;17.13;8.45;;;;;;;17.00;63.68;100612.06;5101679;28;20028;-77
2022/05/23 01:18:04;;;;;;;14.40;8.02;;;;;;;17.09;63.63;100632.63;5112946;28;20497;-77
2022/05/23 01:20:29;;;;;;;10.20;7.60;;;;;;;17.05;64.79;100631.09;5107883;28;20584;-77
2022/05/23 01:23:27;;;;;;;12.57;8.02;;;;;;;16.99;64.11;100620.88;5114491;28;20509;-77
2022/05/23 01:25:52;;;;;;;14.35;7.78;;;;;;;16.94;65.55;100619.41;5111775;28;20472;-77
2022/05/23 01:28:18;;;;;;;11.85;7.47;;;;;;;16.88;65.99;100615.34;5114491;28;20028;-77
2022/05/23 01:30:45;;;;;;;13.02;7.63;;;;;;;16.76;66.19;100605.47;5114432;28;20063;-77
2022/05/23 01:33:12;;;;;;;12.52;7.88;;;;;;;16.62;66.52;100616.69;5110256;28;20015;-77
2022/05/23 01:35:39;;;;;;;14.70;8.23;;;;;;;16.61;66.65;100609.69;5108713;28;20117;-77
2022/05/23 01:38:05;;;;;;;13.15;8.27;;;;;;;16.56;66.91;100607.31;5100063;28;20024;-77
2022/05/23 01:40:30;;;;;;;14.27;8.05;;;;;;;16.46;67.25;100592.09;5113190;28;20027;-77
2022/05/23 01:42:56;;;;;;;9.98;7.68;;;;;;;16.44;66.86;100597.41;5114647;28;20108;-77
2022/05/23 01:45:30;;;;;;;10.85;8.55;;;;;;;16.31;66.87;100601.63;5112538;28;20459;-77
2022/05/23 01:47:56;;;;;;;14.43;8.27;;;;;;;16.37;67.86;100606.56;5100258;28;20121;-77
2022/05/23 01:50:23;;;;;;;11.45;8.20;;;;;;;16.39;67.67;100600.31;5114065;27;20035;-77
2022/05/23 01:52:48;;;;;;;14.57;8.38;;;;;;;16.43;67.61;100606.25;5113226;28;20395;-77
2022/05/23 01:55:14;;;;;;;15.30;8.77;;;;;;;16.39;67.77;100599.47;5112528;28;20030;-77
2022/05/23 01:57:39;;;;;;;14.73;8.75;;;;;;;16.45;68.57;100604.41;5113080;28;20032;-77
2022/05/23 02:02:52;;;;;;;13.73;8.93;;;;;;;16.48;68.06;100580.56;5093596;28;20557;-77
2022/05/23 02:05:18;;;;;;;13.07;8.32;;;;;;;16.48;68.45;100579.69;5093091;28;20036;-77
2022/05/23 02:07:43;;;;;;;10.23;8.15;;;;;;;16.47;68.49;100576.22;5112830;28;20065;-77
2022/05/23 02:10:10;;;;;;;13.05;7.95;;;;;;;16.40;68.53;100585.38;5113890;28;20035;-77
2022/05/23 02:12:36;;;;;;;12.02;8.43;;;;;;;16.35;68.52;100582.13;5113586;28;20024;-77
2022/05/23 02:15:01;;;;;;;14.52;8.82;;;;;;;16.34;68.78;100583.88;5112544;28;20020;-78
2022/05/23 02:17:27;;;;;;;10.50;8.75;;;;;;;16.31;68.95;100591.09;5096276;28;20043;-78
2022/05/23 02:19:53;;;;;;;11.13;8.57;;;;;;;16.27;68.95;100594.81;5112688;28;20463;-78
2022/05/23 02:22:18;;;;;;;13.90;8.50;;;;;;;16.29;69.58;100582.44;5112533;28;20024;-77
2022/05/23 02:24:43;;;;;;;12.07;8.98;;;;;;;16.25;68.46;100576.50;5113265;28;20110;-78
2022/05/23 02:27:09;;;;;;;14.18;9.02;;;;;;;16.20;69.16;100575.88;5111169;28;20027;-77
2022/05/23 02:29:36;;;;;;;12.32;9.13;;;;;;;16.19;68.96;100575.97;5099205;28;20031;-77
2022/05/23 02:32:01;;;;;;;14.93;9.40;;;;;;;16.19;68.93;100571.53;5113253;28;20379;-77
2022/05/23 02:34:26;;;;;;;12.85;9.05;;;;;;;16.23;69.19;100572.25;5113120;28;20015;-77
2022/05/23 02:36:53;;;;;;;13.52;9.10;;;;;;;16.18;69.68;100572.44;5110633;28;20027;-77
2022/05/23 02:39:18;;;;;;;14.73;8.70;;;;;;;16.20;69.62;100562.72;5113120;28;20028;-77
2022/05/23 02:41:43;;;;;;;11.20;8.77;;;;;;;16.18;69.81;100561.09;5112830;28;20081;-77
2022/05/23 02:44:09;;;;;;;17.70;9.48;;;;;;;16.15;70.17;100556.81;5111500;28;20028;-77
2022/05/23 02:46:35;;;;;;;16.25;9.75;;;;;;;16.15;70.78;100547.19;5100420;28;20114;-77
2022/05/23 02:49:00;;;;;;;11.80;8.57;;;;;;;16.17;70.52;100541.84;5106728;28;20027;-77
2022/05/23 02:51:26;;;;;;;14.75;9.90;;;;;;;16.18;70.53;100537.41;5110895;28;20032;-78
2022/05/23 02:53:51;;;;;;;13.93;9.50;;;;;;;16.12;70.39;100528.94;5112538;27;20051;-77
2022/05/23 02:56:17;;;;;;;13.45;9.45;;;;;;;16.11;69.61;100521.09;5097771;28;20032;-77
2022/05/23 02:58:43;;;;;;;18.13;9.77;;;;;;;16.18;69.91;100514.59;5097618;28;20031;-77
2022/05/23 03:01:09;;;;;;;16.58;9.50;;;;;;;16.20;70.40;100504.00;5113068;28;20019;-77
2022/05/23 03:03:34;;;;;;;15.98;9.82;;;;;;;16.13;70.54;100504.31;5111672;28;20391;-77
2022/05/23 03:06:00;;;;;;;19.60;10.10;;;;;;;16.10;71.04;100493.97;5108839;28;20028;-77
2022/05/23 03:08:27;;;;;;;12.80;8.95;;;;;;;16.08;70.49;100477.41;5091401;28;20487;-77
2022/05/23 03:10:56;;;;;;;16.40;9.75;;;;;;;16.05;70.49;100474.94;5091418;28;20365;-77
2022/05/23 03:13:22;;;;;;;16.17;9.95;;;;;;;16.01;71.20;100467.31;5091461;28;20032;-77
2022/05/23 03:15:47;;;;;;;13.27;9.88;;;;;;;16.01;71.42;100468.16;5096563;28;20038;-77
2022/05/23 03:18:12;;;;;;;14.73;9.55;;;;;;;16.02;70.61;100464.59;5111723;28;20023;-77
2022/05/23 03:20:37;;;;;;;13.52;9.85;;;;;;;16.03;71.24;100460.19;5111262;28;20031;-77
2022/05/23 03:28:33;;;;;;;14.18;9.73;;;;;;;15.94;71.54;100444.91;5091579;28;20526;-78
2022/05/23 03:30:58;;;;;;;11.15;9.45;;;;;;;15.85;71.13;100431.28;5110261;28;20040;-77
2022/05/23 03:33:23;;;;;;;17.15;10.32;;;;;;;15.92;71.19;100434.44;5110166;28;20110;-77
2022/05/23 03:35:49;;;;;;;13.57;9.93;;;;;;;15.90;71.77;100437.16;5110085;28;20478;-77
2022/05/23 03:38:15;;;;;;;16.95;9.82;;;;;;;15.88;71.95;100435.53;5111524;28;20030;-77
2022/05/23 03:40:41;;;;;;;14.65;9.93;;;;;;;15.87;72.01;100425.97;5106924;28;20027;-77
2022/05/23 03:43:07;;;;;;;13.25;9.23;;;;;;;15.86;72.15;100421.66;5112574;28;20051;-77
2022/05/23 03:45:33;;;;;;;16.90;9.85;;;;;;;15.82;72.32;100418.28;5110098;28;20160;-77
2022/05/23 03:48:00;;;;;;;11.55;9.38;;;;;;;15.83;72.13;100419.16;5112375;28;20076;-77
2022/05/23 03:50:28;;;;;;;16.30;9.63;;;;;;;15.82;72.97;100410.41;5110640;28;20031;-77
2022/05/23 03:52:54;;;;;;;13.18;8.70;;;;;;;15.74;73.35;100401.25;5108932;28;20214;-77
2022/05/23 03:55:21;;;;;;;14.90;9.48;;;;;;;15.73;73.00;100407.41;5110757;28;20502;-77
2022/05/23 03:57:46;;;;;;;13.23;9.45;;;;;;;15.68;73.37;100405.88;5110155;28;20061;-77
2022/05/23 04:00:12;;;;;;;16.90;9.30;;;;;;;15.64;73.47;100404.31;5104711;28;20028;-77
2022/05/23 04:02:39;;;;;;;13.68;9.38;;;;;;;15.62;73.79;100400.06;5091646;28;20081;-77
2022/05/23 04:05:05;;;;;;;12.95;10.40;;;;;;;15.57;73.82;100402.09;5091898;28;20024;-77
2022/05/23 04:07:31;;;;;;;13.18;9.50;;;;;;;15.56;74.31;100395.94;5105129;28;20542;-77
2022/05/23 04:09:56;;;;;;;14.10;10.07;;;;;;;15.47;74.37;100393.81;5110843;28;20110;-77
2022/05/23 04:12:22;;;;;;;13.10;9.45;;;;;;;15.51;75.20;100392.72;5114437;28;20015;-77
2022/05/23 04:14:47;;;;;;;15.02;9.65;;;;;;;15.54;75.06;100383.84;5115095;28;20036;-77
2022/05/23 04:17:12;;;;;;;14.88;9.57;;;;;;;15.53;75.26;100374.25;5109614;28;20024;-76
2022/05/23 04:19:38;;;;;;;12.30;9.32;;;;;;;15.57;74.92;100373.19;5101995;28;20031;-77
2022/05/23 04:22:04;;;;;;;13.73;9.52;;;;;;;15.58;75.10;100364.38;5115180;28;20020;-77
2022/05/23 04:24:29;;;;;;;14.40;9.65;;;;;;;15.66;74.80;100377.94;5102167;28;20027;-77
2022/05/23 04:26:56;;;;;;;15.68;9.27;;;;;;;15.65;74.10;100366.59;5103890;28;20058;-77
2022/05/23 04:29:22;;;;;;;12.20;9.80;;;;;;;15.70;75.29;100368.19;5094648;28;20026;-77
2022/05/23 04:31:48;;;;;;;14.10;9.13;;;;;;;15.75;74.50;100374.03;5095131;28;20150;-77
2022/05/23 04:36:57;;;;;;;13.05;9.55;;;;;;;15.91;74.57;100373.13;5096990;28;20100;-77
2022/05/23 04:39:22;;;;;;;14.75;9.48;;;;;;;16.01;73.90;100367.38;5115530;28;20110;-77
2022/05/23 04:41:47;;;;;;;16.83;10.10;;;;;;;16.04;74.01;100368.06;5114554;28;20028;-77
2022/05/23 04:44:13;;;;;;;15.35;9.43;;;;;;;16.10;73.64;100359.84;5115350;28;20023;-77
2022/05/23 04:49:41;;;;;;;12.32;9.57;;;;;;;16.12;73.94;100357.13;5113969;28;20053;-77
2022/05/23 04:49:49;;;;;;;13.25;9.45;;;;;;;16.17;74.35;100364.78;5113532;28;20483;-77
2022/05/23 04:52:19;;;;;;;14.68;9.43;;;;;;;16.18;73.41;100350.69;5114385;28;20028;-77
2022/05/23 04:54:45;;;;;;;12.82;9.00;;;;;;;16.15;72.94;100342.06;5114800;28;20075;-77
2022/05/23 04:57:10;;;;;;;13.63;9.02;;;;;;;16.19;73.81;100342.75;5098262;28;20121;-77
2022/05/23 04:59:36;;;;;;;13.68;8.75;;;;;;;16.21;73.88;100345.28;5112241;28;20066;-77
2022/05/23 05:02:03;;;;;;;13.55;8.65;;;;;;;16.28;73.61;100344.00;5108204;27;20055;-77
2022/05/23 05:04:29;;;;;;;14.93;8.88;;;;;;;16.30;73.45;100350.03;5093907;28;20027;-77
2022/05/23 05:06:55;;;;;;;12.88;8.65;;;;;;;16.34;73.91;100338.41;5096342;28;20111;-77
2022/05/23 05:09:20;;;;;;;14.00;8.52;;;;;;;16.44;73.33;100344.00;5093939;28;20149;-77
2022/05/23 05:11:45;;;;;;;11.98;8.63;;;;;;;16.58;73.22;100338.84;5111850;28;20482;-77
2022/05/23 05:14:10;;;;;;;13.52;8.30;;;;;;;16.60;71.73;100319.38;5114488;28;20383;-77
2022/05/23 05:16:37;;;;;;;12.88;8.70;;;;;;;16.77;71.75;100315.81;5106498;28;20039;-77
2022/05/23 05:19:03;;;;;;;13.02;8.80;;;;;;;16.89;72.65;100308.16;5107083;28;20503;-77
2022/05/23 05:21:28;;;;;;;11.75;8.30;;;;;;;16.94;72.02;100306.94;5114666;28;20106;-77
2022/05/23 05:23:54;;;;;;;10.32;7.57;;;;;;;16.94;72.26;100291.16;5113833;28;20135;-77
2022/05/23 05:26:19;;;;;;;14.00;7.80;;;;;;;17.05;70.83;100296.63;5103524;28;20024;-77
2022/05/23 05:28:44;;;;;;;11.77;7.57;;;;;;;17.11;70.95;100292.78;5094547;28;20024;-77
2022/05/23 05:31:19;;;;;;;11.15;7.65;;;;;;;17.18;69.66;100298.53;5093163;28;20391;-77
2022/05/23 05:33:48;;;;;;;10.73;7.55;;;;;;;17.24;70.68;100292.91;5093893;28;20024;-77
2022/05/23 05:36:19;;;;;;;10.60;7.72;;;;;;;17.28;70.84;100283.88;5097347;28;20140;-77
2022/05/23 05:38:52;;;;;;;11.00;8.18;;;;;;;17.34;69.84;100282.66;5093079;28;20023;-77
2022/05/23 05:41:22;;;;;;;13.05;8.25;;;;;;;17.39;69.88;100278.78;5107853;28;20068;-76
2022/05/23 05:43:55;;;;;;;11.40;7.97;;;;;;;17.46;69.53;100279.25;5114363;28;20028;-77
2022/05/23 05:46:34;;;;;;;11.87;8.60;;;;;;;17.57;69.19;100265.44;5110278;28;20484;-77
2022/05/23 05:49:03;;;;;;;10.88;8.27;;;;;;;17.62;68.91;100268.63;5113559;28;20032;-77
2022/05/23 05:51:30;;;;;;;12.50;8.38;;;;;;;17.67;68.86;100262.16;5113956;28;20681;-77
2022/05/23 05:53:55;;;;;;;9.80;8.10;;;;;;;17.64;69.04;100243.03;5104758;28;20040;-77
2022/05/23 05:56:20;;;;;;;12.02;8.25;;;;;;;17.69;68.20;100247.09;5093607;28;20062;-77
2022/05/23 05:58:46;;;;;;;10.75;8.40;;;;;;;17.70;68.23;100248.78;5106398;28;20031;-76
2022/05/23 06:01:11;;;;;;;11.05;8.57;;;;;;;17.70;67.69;100258.47;5098912;28;20028;-76
2022/05/23 06:03:37;;;;;;;12.88;8.35;;;;;;;17.77;67.86;100255.38;5107033;28;20375;-76
2022/05/23 06:11:31;;;;;;;11.75;7.88;;;;;;;17.96;66.52;100262.16;5097574;28;20066;-76
2022/05/23 06:13:58;;;;;;;9.85;7.80;;;;;;;18.01;65.46;100250.34;5101456;28;20031;-77
2022/05/23 06:16:29;;;;;;;9.23;7.47;;;;;;;18.12;65.66;100243.56;5112320;28;20032;-77
2022/05/23 06:18:55;;;;;;;9.60;7.45;;;;;;;18.19;66.52;100235.13;5113423;28;20026;-77
2022/05/23 06:21:21;;;;;;;10.80;7.32;;;;;;;18.28;64.75;100230.19;5112802;28;20019;-77
2022/05/23 06:23:47;;;;;;;9.52;7.38;;;;;;;18.32;64.77;100235.19;5101606;28;20111;-77
2022/05/23 06:26:17;;;;;;;14.07;7.40;;;;;;;18.37;65.13;100227.81;5097510;28;20103;-77
2022/05/23 06:28:43;;;;;;;9.65;7.50;;;;;;;18.43;64.33;100221.28;5104087;28;20201;-77
2022/05/23 06:31:11;;;;;;;9.75;6.82;;;;;;;18.49;65.55;100216.44;5112205;28;20019;-77
2022/05/23 06:33:37;;;;;;;11.77;7.45;;;;;;;18.59;64.81;100224.59;5108840;28;20020;-77
2022/05/23 06:36:06;;;;;;;9.18;6.75;;;;;;;18.64;64.84;100219.03;5111182;28;20028;-77
2022/05/23 06:38:32;;;;;;;9.15;6.80;;;;;;;18.61;64.50;100220.06;5104423;28;20027;-77
2022/05/23 06:40:58;;;;;;;10.40;6.97;;;;;;;18.60;64.09;100220.16;5093984;28;20098;-77
2022/05/23 06:43:23;;;;;;;11.30;7.00;;;;;;;18.61;64.70;100224.50;5093151;28;20036;-75
2022/05/23 06:45:49;;;;;;;11.30;7.15;;;;;;;18.68;64.29;100226.63;5107999;28;20028;-75
2022/05/23 06:48:15;;;;;;;9.95;7.25;;;;;;;18.79;64.51;100211.88;5112300;28;20024;-75
2022/05/23 06:50:40;;;;;;;11.90;7.22;;;;;;;18.94;63.01;100211.69;5112674;28;20055;-75
2022/05/23 06:53:05;;;;;;;14.63;7.60;;;;;;;19.25;63.68;100216.66;5107366;28;20056;-75
2022/05/23 06:55:31;;;;;;;14.07;7.20;;;;;;;19.49;62.35;100222.00;5099295;28;20032;-74
2022/05/23 06:57:56;;;;;;;9.63;6.85;;;;;;;19.60;60.91;100214.19;5112934;28;20019;-75
2022/05/23 07:00:21;;;;;;;11.63;6.82;;;;;;;19.66;59.93;100218.22;5107076;28;20563;-75
2022/05/23 07:02:47;;;;;;;13.45;6.70;;;;;;;19.75;60.23;100225.50;5098796;28;20028;-75
2022/05/23 07:13:25;;;;;;;11.90;7.38;;;;;;;19.71;61.40;100216.94;5109898;28;20141;-75
2022/05/23 07:15:52;;;;;;;16.63;6.43;;;;;;;19.72;62.28;100212.47;5101408;28;20039;-75
2022/05/23 07:18:19;;;;;;;11.02;7.30;;;;;;;19.63;59.24;100213.97;5091362;28;20020;-75
2022/05/23 07:20:45;;;;;;;9.13;6.88;;;;;;;19.65;61.23;100209.44;5094327;28;20024;-75
2022/05/23 07:23:11;;;;;;;11.07;7.03;;;;;;;19.70;60.45;100207.31;5111570;28;20463;-74
2022/05/23 07:25:37;;;;;;;11.60;7.15;;;;;;;19.70;61.74;100209.97;5099674;28;20031;-76
2022/05/23 07:28:02;;;;;;;8.02;6.38;;;;;;;19.84;62.03;100214.25;5091874;28;20127;-76
2022/05/23 07:30:28;;;;;;;11.15;6.78;;;;;;;19.98;63.20;100218.53;5097650;28;20838;-76
2022/05/23 07:32:54;;;;;;;14.32;6.85;;;;;;;20.09;61.69;100218.63;5112244;28;20020;-76
2022/05/23 07:35:19;;;;;;;11.25;6.53;;;;;;;20.32;60.83;100217.78;5112130;28;20410;-76
2022/05/23 07:37:44;;;;;;;9.80;6.32;;;;;;;20.48;60.59;100224.59;5111332;28;20084;-76
2022/05/23 07:40:11;;;;;;;14.50;7.15;;;;;;;20.68;59.28;100217.81;5109873;28;20743;-79
2022/05/23 07:42:37;;;;;;;12.18;6.55;;;;;;;20.84;57.13;100210.41;5092831;28;20024;-78
2022/05/23 07:45:04;;;;;;;14.10;6.32;;;;;;;21.02;59.42;100205.47;5091480;28;20051;-79
2022/05/23 07:47:29;;;;;;;11.80;5.57;;;;;;;21.19;57.96;100196.22;5094686;28;20122;-78
2022/05/23 07:49:54;;;;;;;13.45;5.68;;;;;;;21.26;55.73;100192.97;5095869;28;20107;-78
2022/05/23 07:52:20;;;;;;;9.63;5.55;;;;;;;21.27;56.51;100191.16;5105376;28;20032;-76
2022/05/23 08:02:52;;;;;;;9.75;5.53;;;;;;;21.95;54.19;100187.50;5116014;28;20085;-80
2022/05/23 08:05:18;;;;;;;8.50;5.07;;;;;;;22.19;52.81;100178.53;5116075;28;20663;-80
2022/05/23 08:07:43;;;;;;;12.65;6.00;;;;;;;22.20;54.01;100177.53;5115539;28;20539;-79
2022/05/23 08:10:10;;;;;;;11.75;6.20;;;;;;;22.03;53.62;100170.94;5116495;27;20098;-79
2022/05/23 08:12:36;;;;;;;11.35;5.80;;;;;;;21.92;52.62;100165.69;5115231;28;20420;-79
2022/05/23 08:15:04;;;;;;;8.05;4.97;;;;;;;21.74;54.27;100160.91;5112736;28;20024;-79
2022/05/23 08:17:29;;;;;;;10.13;5.65;;;;;;;21.57;53.05;100161.41;5096443;28;20403;-79
2022/05/23 08:19:54;;;;;;;8.05;5.47;;;;;;;21.35;54.79;100159.63;5109059;28;20137;-79
2022/05/23 08:22:20;;;;;;;13.52;5.72;;;;;;;21.21;55.08;100162.50;5115983;28;20031;-79
2022/05/23 08:24:46;;;;;;;12.48;5.75;;;;;;;21.18;55.79;100149.47;5114617;28;20033;-79
2022/05/23 08:27:11;;;;;;;9.80;5.65;;;;;;;21.21;57.04;100157.19;5105957;28;20031;-79
2022/05/23 08:29:37;;;;;;;8.40;5.47;;;;;;;21.21;56.30;100147.44;5114214;28;20070;-79
2022/05/23 08:32:07;;;;;;;12.40;6.75;;;;;;;21.13;55.41;100149.00;5115809;28;20463;-79
2022/05/23 08:34:35;;;;;;;11.43;5.88;;;;;;;21.13;58.58;100143.72;5112197;28;20032;-78
2022/05/23 08:37:01;;;;;;;15.02;6.22;;;;;;;21.33;54.64;100139.47;5114286;28;20032;-79
2022/05/23 08:39:26;;;;;;;10.15;5.55;;;;;;;21.46;54.62;100127.81;5114534;28;20032;-79
2022/05/23 08:41:52;;;;;;;11.60;5.40;;;;;;;21.69;55.90;100119.78;5114514;28;20066;-79
2022/05/23 08:44:26;;;;;;;8.45;5.63;;;;;;;21.87;54.95;100115.63;5115202;28;20024;-79
2022/05/23 08:47:01;;;;;;;11.27;5.55;;;;;;;22.05;55.65;100115.09;5115268;28;20027;-79
2022/05/23 08:49:35;;;;;;;11.45;6.03;;;;;;;22.16;53.80;100113.25;5111982;28;20023;-79
2022/05/23 08:52:06;;;;;;;14.02;5.47;;;;;;;22.28;53.90;100106.06;5096058;28;20479;-79
2022/05/23 08:54:45;;;;;;;8.43;5.28;;;;;;;22.36;54.41;100103.59;5105837;28;20127;-79
2022/05/23 08:57:27;;;;;;;9.73;5.45;;;;;;;22.59;53.25;100106.97;5094308;28;20048;-79
2022/05/23 08:59:56;;;;;;;8.55;6.35;;;;;;;22.56;50.76;100093.09;5094677;28;20060;-79
2022/05/23 09:02:42;;;;;;;10.52;5.90;;;;;;;22.53;52.82;100099.53;5094498;28;20341;-79
2022/05/23 09:05:12;;;;;;;11.75;5.85;;;;;;;22.39;53.87;100092.72;5097525;28;20118;-79
2022/05/23 09:07:48;;;;;;;9.88;5.88;;;;;;;22.23;53.31;100081.72;5108692;28;20039;-79
2022/05/23 09:10:22;;;;;;;11.25;5.78;;;;;;;22.10;53.49;100081.88;5114470;28;20103;-79
2022/05/23 09:12:49;;;;;;;;;;;;;;;22.23;53.63;100072.91;5115379;27;20028;-79
2022/05/23 09:15:14;;;;;;;11.60;6.10;;;;;;;22.06;54.71;100069.81;5114792;28;19911;-79
2022/05/23 09:17:45;;;;;;;8.25;5.28;;;;;;;22.21;53.21;100075.72;5114330;28;20354;-79
2022/05/23 09:20:18;;;;;;;11.32;5.88;;;;;;;22.25;52.89;100071.81;5105340;28;20031;-79
2022/05/23 09:22:48;;;;;;;10.32;5.60;;;;;;;22.10;52.08;100071.25;5093641;28;20379;-79
2022/05/23 09:25:19;;;;;;;12.70;5.43;;;;;;;21.91;53.62;100064.00;5094404;28;20024;-79
2022/05/23 09:28:23;;;;;;;10.30;5.72;;;;;;;21.78;54.52;100066.00;5094257;28;20052;-79
2022/05/23 09:30:56;;;;;;;;;;;;;;;21.81;54.93;100062.22;5069310;28;20040;-79
2022/05/23 09:33:22;;;;;;;10.70;5.05;;;;;;;21.77;55.02;100048.38;5094185;28;19912;-79
2022/05/23 09:36:07;;;;;;;7.10;5.20;;;;;;;22.26;55.16;100038.97;5093998;28;20039;-79
2022/05/23 09:38:44;;;;;;;8.82;5.35;;;;;;;22.81;53.53;100028.91;5092887;28;20028;-79
2022/05/23 09:41:27;;;;;;;14.15;5.57;;;;;;;23.29;51.52;100022.09;5093992;28;20016;-79
2022/05/23 09:49:46;;;;;;;8.85;5.43;;;;;;;23.41;50.62;100020.13;5114067;28;20169;-81
2022/05/23 09:52:27;;;;;;;11.13;5.68;;;;;;;23.34;50.84;100018.00;5110966;28;20095;-80
2022/05/23 09:54:57;;;;;;;11.75;6.10;;;;;;;23.36;50.09;100001.94;5093576;28;20150;-77
2022/05/23 09:57:56;;;;;;;10.52;5.55;;;;;;;23.39;52.07;100006.13;5092938;28;20435;-77
2022/05/23 10:00:22;;;;;;;11.52;5.97;;;;;;;23.00;50.11;99984.81;5093374;28;20039;-75
2022/05/23 10:02:52;;;;;;;9.27;5.53;;;;;;;23.03;52.93;99988.03;5097178;28;20031;-78
2022/05/23 10:05:39;;;;;;;8.20;5.90;;;;;;;23.10;52.98;99986.50;5106634;28;20123;-75
2022/05/23 10:08:09;;;;;;;17.63;6.82;;;;;;;23.18;51.00;99977.81;5111044;28;20371;-77
2022/05/23 10:10:38;;;;;;;10.10;6.10;;;;;;;23.28;50.33;99977.81;5104410;28;20020;-77
2022/05/23 10:13:23;;;;;;;8.38;5.80;;;;;;;23.33;51.65;99981.75;5097805;28;20051;-76
2022/05/23 10:15:53;;;;;;;7.53;5.50;;;;;;;23.37;50.30;99967.19;5101899;28;20074;-77
2022/05/23 10:18:29;;;;;;;8.98;5.95;;;;;;;23.40;50.75;99981.22;5099741;28;20032;-78
2022/05/23 10:20:55;;;;;;;7.50;5.05;;;;;;;23.42;50.73;99984.59;5107882;28;20028;-76
2022/05/23 10:23:26;;;;;;;11.13;6.15;;;;;;;23.51;51.42;99981.06;5113551;28;20035;-77
2022/05/23 10:26:14;;;;;;;9.80;6.00;;;;;;;23.54;51.29;99980.78;5111235;28;20024;-76
2022/05/23 10:28:53;;;;;;;10.27;6.18;;;;;;;23.72;50.27;99983.63;5108257;28;20040;-76
2022/05/23 10:31:42;;;;;;;11.43;6.20;;;;;;;23.96;50.09;99980.50;5112446;28;20019;-76
2022/05/23 10:34:50;;;;;;;11.63;5.47;;;;;;;24.25;50.91;99970.63;5111524;28;20034;-76
2022/05/23 10:37:19;;;;;;;16.23;5.32;;;;;;;24.52;48.25;99961.88;5065584;28;20436;-75
2022/05/23 10:42:34;;;;;;;9.88;5.00;;;;;;;24.87;45.65;99954.94;5104659;28;20501;-77
2022/05/23 10:45:18;;;;;;;13.25;5.75;;;;;;;24.99;46.21;99940.41;5092993;28;20024;-77
2022/05/23 10:47:58;;;;;;;6.55;4.53;;;;;;;25.00;44.77;99930.59;5106095;28;20080;-77
2022/05/23 10:51:07;;;;;;;8.50;4.97;;;;;;;25.16;45.08;99932.59;5101503;28;20031;-77
2022/05/23 10:53:53;;;;;;;11.88;5.05;;;;;;;25.28;45.13;99919.88;5105262;28;20055;-76
2022/05/23 10:56:42;;;;;;;12.13;5.25;;;;;;;25.31;42.96;99912.41;5101026;28;20126;-76
2022/05/23 10:59:19;;;;;;;7.25;4.90;;;;;;;25.66;44.75;99914.19;5092862;28;20028;-77
2022/05/23 11:02:09;;;;;;;8.13;5.65;;;;;;;25.92;43.95;99905.38;5092326;28;20048;-77
2022/05/23 11:05:08;;;;;;;9.43;6.07;;;;;;;26.03;43.30;99893.56;5092428;28;20392;-77
2022/05/23 11:07:38;;;;;;;9.48;6.60;;;;;;;26.18;42.09;99883.16;5108635;28;20032;-78
2022/05/23 11:10:14;;;;;;;7.65;5.40;;;;;;;26.33;41.35;99870.88;5112034;28;20024;-78
2022/05/23 11:13:17;;;;;;;7.93;4.47;;;;;;;26.28;42.86;99857.97;5112599;28;20467;-78
2022/05/23 11:16:14;;;;;;;6.07;4.05;;;;;;;26.65;42.60;99846.13;5100572;28;20040;-78
2022/05/23 11:19:00;;;;;;;7.53;4.00;;;;;;;27.31;40.63;99839.81;5112405;28;20031;-76
2022/05/23 11:21:36;;;;;;;6.78;3.05;;;;;;;27.67;39.99;99828.72;5092163;28;20024;-77
2022/05/23 11:24:07;;;;;;;7.00;3.78;;;;;;;27.36;38.16;99819.75;5091761;28;20111;-77
2022/05/23 11:26:55;;;;;;;5.38;3.50;;;;;;;27.20;40.17;99833.97;5091751;28;20033;-77
2022/05/23 11:35:12;;;;;;;7.53;3.13;;;;;;;27.39;37.74;99808.69;5069292;28;20058;-77
2022/05/23 11:37:44;;;;;;;4.30;3.22;;;;;;;28.02;36.99;99805.19;5088312;28;20123;-77
2022/05/23 11:40:32;;;;;;;5.95;3.22;;;;;;;28.20;35.81;99804.97;5094781;28;20035;-77
2022/05/23 11:43:07;;;;;;;6.45;3.00;;;;;;;28.02;37.71;99810.56;5112374;28;20020;-77
2022/05/23 11:46:00;;;;;;;5.88;3.28;;;;;;;27.71;37.53;99799.78;5111092;28;20027;-77
2022/05/23 11:48:35;;;;;;;5.90;3.30;;;;;;;27.60;37.88;99790.28;5112208;28;20424;-77
2022/05/23 11:51:24;;;;;;;6.30;2.70;;;;;;;27.78;37.03;99788.22;5111657;28;20047;-77
2022/05/23 11:53:56;;;;;;;5.35;3.03;;;;;;;28.06;36.38;99786.91;5102884;28;20610;-77
2022/05/23 11:56:44;;;;;;;3.95;2.85;;;;;;;27.97;34.90;99778.09;5099748;28;20052;-77
2022/05/23 11:59:23;;;;;;;3.85;2.80;;;;;;;27.39;36.29;99779.28;5095347;28;20483;-77
2022/05/23 12:02:08;;;;;;;3.97;3.15;;;;;;;27.21;38.12;99774.13;5094723;28;20077;-76
2022/05/23 12:04:55;;;;;;;4.93;2.80;;;;;;;26.68;39.52;99778.94;5101527;28;20444;-76
2022/05/23 12:07:41;;;;;;;6.95;3.75;;;;;;;26.11;39.64;99784.13;5061154;28;20539;-76
2022/05/23 12:10:28;;;;;;;7.80;3.03;;;;;;;25.59;40.11;99782.38;5099395;28;20058;-77
2022/05/23 12:13:01;;;;;;;5.32;2.85;;;;;;;25.11;41.40;99772.19;5093826;28;20113;-77
2022/05/23 12:15:41;;;;;;;5.60;3.33;;;;;;;24.86;41.25;99780.00;5106417;28;20067;-77
2022/05/23 12:18:07;;;;;;;3.75;2.60;;;;;;;24.58;41.15;99771.25;5096293;28;20020;-77
2022/05/23 12:20:43;;;;;;;7.63;2.85;;;;;;;24.62;44.11;99761.13;5093820;28;20028;-77
2022/05/23 12:23:17;;;;;;;6.55;3.20;;;;;;;24.67;42.63;99769.50;5095161;28;20034;-76
2022/05/23 12:25:43;;;;;;;8.65;6.88;;;;;;;24.69;41.39;99767.53;5102350;28;20055;-76